Kaharoa — ZM7552 — position and weather

sailwx.info

Track history (hours):
 
Tides and Currents Weather Stations Pressure Air Temp Water Temp Dewpoint Dewpoint Depression Visibility Wind Speed Wind Dir Waves Ship Positions

Oceanographic research ship Kaharoa (New Zealand)

Detailed information on ship capabilities available from University of Delaware's Ocean Information Center.

Last reported at 2017-May-27 06:39 UTC. Time now 2017-May-27 17:34 UTC.
Position S 36°17' E 174°54'.

Length 28 m; draft 3.5 m.

Type: Fishing. MMSI: 512063000.

Date/timePositionNaut miles runAvg speedWind from/ knotsBaromVisibWave heightAir tempDewpointWater temp
2017-May-27 06:39S 36°17' E 174°54'2 9.7
2017-May-27 06:26S 36°19' E 174°55'4 9.6
2017-May-27 06:00S 36°23' E 174°55'5 9.2
2017-May-27 05:31S 36°28' E 174°54'5 9.5
2017-May-27 05:00S 36°32' E 174°53'5 9.5
2017-May-27 04:29S 36°37' E 174°51'5 9.7
2017-May-27 03:56S 36°42' E 174°50'5 9.2
2017-May-27 03:24S 36°47' E 174°48'3 5.8
2017-May-27 02:50S 36°50' E 174°47'1 0.1
2017-May-26 02:49S 36°50' E 174°46'0 1.0
2017-May-26 02:30S 36°50' E 174°46'3 7.0
2017-May-26 02:00S 36°48' E 174°49'4 8.2
2017-May-26 01:30S 36°44' E 174°51'610.1
2017-May-26 00:57S 36°41' E 174°57'4 9.9
2017-May-26 00:30S 36°38' E 175°01'5 9.9
2017-May-26 00:00S 36°35' E 175°06'34 9.3
2017-May-25 20:22S 36°17' E 175°41'  
Track history (hours):
 
Tides and Currents Weather Stations Pressure Air Temp Water Temp Dewpoint Dewpoint Depression Visibility Wind Speed Wind Dir Waves Ship Positions

Oceanographic research ship Kaharoa (New Zealand)

Detailed information on ship capabilities available from University of Delaware's Ocean Information Center.

Last reported at 2017-May-27 06:39 UTC. Time now 2017-May-27 17:34 UTC.
Position S 36°17' E 174°54'.

Length 28 m; draft 3.5 m.

Type: Fishing. MMSI: 512063000.

Date/timePositionNaut miles runAvg speedWind from/ knotsBaromVisibWave heightAir tempDewpointWater temp
2017-May-27 06:39S 36°17' E 174°54'2 9.7
2017-May-27 06:26S 36°19' E 174°55'4 9.6
2017-May-27 06:00S 36°23' E 174°55'5 9.2
2017-May-27 05:31S 36°28' E 174°54'5 9.5
2017-May-27 05:00S 36°32' E 174°53'5 9.5
2017-May-27 04:29S 36°37' E 174°51'5 9.7
2017-May-27 03:56S 36°42' E 174°50'5 9.2
2017-May-27 03:24S 36°47' E 174°48'3 5.8
2017-May-27 02:50S 36°50' E 174°47'1 0.1
2017-May-26 02:49S 36°50' E 174°46'0 1.0
2017-May-26 02:30S 36°50' E 174°46'3 7.0
2017-May-26 02:00S 36°48' E 174°49'4 8.2
2017-May-26 01:30S 36°44' E 174°51'610.1
2017-May-26 00:57S 36°41' E 174°57'4 9.9
2017-May-26 00:30S 36°38' E 175°01'5 9.9
2017-May-26 00:00S 36°35' E 175°06'34 9.3
2017-May-25 20:22S 36°17' E 175°41'  

Dump ship's entire track history